Mount Pleasant, Texas
Current Conditions -  °F | °C
As of 6:15 PM on Monday 20 Oct 2014 (Local Time) from KOSA Reporting Station
Clear Clear  
Wind Chill: 75°   Ceiling: Unl
Heat Index: 75°   Visibility: 2mi
Dew Point: 58°   Wind: 0mph
Humidity: 56%   Direction: NA
Pressure: 30.04"   Gusts: NA
Location:  33.16°N, 94.97°W
Report Text: KOSA 202315Z AUTO 00000KT 2SM CLR 24/15 A3004 RMK AO1 T02390147
Loading
Personal Weather Stations






























Interactive Weather Map
Tropical Storm Tracking
New forecast layout! Learn more

10-Day Weather Forecast

Advertisements
Track Severe Weather on mobile